KMLB/MLB METAR and TAF weather

Enter ICAO airport designator
Station Type Date Time Source
KMLB METAR 2020/04/01 22:53 UTC NOAA

KMLB 012253Z 04012KT 10SM CLR 19/12 A2986 RMK AO2 SLP112 T01940122


Station Type Date Time Source
KMLB Decoded METAR 2020/04/01 22:53 UTC NOAA

MELBOURNE INTERNATIONAL, FL, United States (KMLB) 28-06N 080-39W 10M
Apr 01, 2020 - 06:53 PM EDT / 2020.04.01 2253 UTC
Wind: from the NE (040 degrees) at 14 MPH (12 KT):0
Visibility: 10 mile(s):0
Sky conditions: clear
Temperature: 66.9 F (19.4 C)
Dew Point: 54.0 F (12.2 C)
Relative Humidity: 63%
Pressure (altimeter): 29.86 in. Hg (1011 hPa)
ob: KMLB 012253Z 04012KT 10SM CLR 19/12 A2986 RMK AO2 SLP112 T01940122
cycle: 23

Station Type Date Time Source
KMLB TAF 2020/04/01 18:36 UTC NOAA

KMLB 011732Z 0118/0218 31010KT P6SM SKC
TEMPO 0120/0123 03015G20KT
FM020000 02007KT P6SM SKC
FM021500 03008KT P6SM SCT035

Example: see airport list